Lee Center, New York
Current Conditions -  °F | °C
As of 1:53 AM on Friday 31 Oct 2014 (Local Time) from KRME Reporting Station
Clear Clear  
Wind Chill: 29°   Ceiling: Unl
Heat Index: 33°   Visibility: 10mi
Dew Point: 32°   Wind: 5mph
Humidity: 96%   Direction: 120°ESE
Pressure: 30.04"   Gusts: NA
Location:  43.3°N, 75.52°W
Report Text: KRME 310553Z AUTO 12004KT 10SM CLR 01/00 A3004 RMK AO2 SLP174 T00060000 10039 20006 55001
Loading
Personal Weather Stations






























Interactive Weather Map
Tropical Storm Tracking
New forecast layout! Learn more

10-Day Weather Forecast

Advertisements
Track Severe Weather on mobile